sensor_id;sensor_type;location;lat;lon;timestamp;P1;durP1;ratioP1;P2;durP2;ratioP2
34876;SDS011;21086;44.780;17.194;2023-05-02T00:01:19;6.88;;;5.80;;
34876;SDS011;21086;44.780;17.194;2023-05-02T00:03:46;6.53;;;5.63;;
34876;SDS011;21086;44.780;17.194;2023-05-02T00:06:13;7.13;;;6.10;;
34876;SDS011;21086;44.780;17.194;2023-05-02T00:08:40;6.30;;;5.70;;
34876;SDS011;21086;44.780;17.194;2023-05-02T00:11:07;6.05;;;5.45;;
34876;SDS011;21086;44.780;17.194;2023-05-02T00:13:34;6.35;;;5.75;;
34876;SDS011;21086;44.780;17.194;2023-05-02T00:16:01;5.90;;;5.28;;
34876;SDS011;21086;44.780;17.194;2023-05-02T00:18:28;6.68;;;6.07;;
34876;SDS011;21086;44.780;17.194;2023-05-02T00:20:55;5.15;;;4.50;;
34876;SDS011;21086;44.780;17.194;2023-05-02T00:23:22;5.55;;;5.05;;
34876;SDS011;21086;44.780;17.194;2023-05-02T00:25:49;5.10;;;4.40;;
34876;SDS011;21086;44.780;17.194;2023-05-02T00:28:16;4.40;;;3.97;;
34876;SDS011;21086;44.780;17.194;2023-05-02T00:30:44;4.90;;;4.30;;
34876;SDS011;21086;44.780;17.194;2023-05-02T00:33:12;5.00;;;4.07;;
34876;SDS011;21086;44.780;17.194;2023-05-02T00:35:40;4.30;;;3.90;;
34876;SDS011;21086;44.780;17.194;2023-05-02T00:38:07;6.72;;;4.65;;
34876;SDS011;21086;44.780;17.194;2023-05-02T00:43:12;4.15;;;3.75;;
34876;SDS011;21086;44.780;17.194;2023-05-02T00:45:40;4.35;;;3.83;;
34876;SDS011;21086;44.780;17.194;2023-05-02T00:48:09;5.60;;;4.15;;
34876;SDS011;21086;44.780;17.194;2023-05-02T00:50:40;4.50;;;3.67;;
34876;SDS011;21086;44.780;17.194;2023-05-02T00:53:08;5.72;;;4.55;;
34876;SDS011;21086;44.780;17.194;2023-05-02T00:55:36;5.80;;;4.80;;
34876;SDS011;21086;44.780;17.194;2023-05-02T00:58:05;5.30;;;4.80;;
34876;SDS011;21086;44.780;17.194;2023-05-02T01:00:45;5.90;;;4.90;;
34876;SDS011;21086;44.780;17.194;2023-05-02T01:06:16;6.07;;;5.47;;
34876;SDS011;21086;44.780;17.194;2023-05-02T01:11:43;8.02;;;6.65;;
34876;SDS011;21086;44.780;17.194;2023-05-02T01:14:19;8.52;;;5.63;;
34876;SDS011;21086;44.780;17.194;2023-05-02T01:16:47;6.30;;;5.45;;
34876;SDS011;21086;44.780;17.194;2023-05-02T01:19:24;9.55;;;5.80;;
34876;SDS011;21086;44.780;17.194;2023-05-02T01:21:54;7.75;;;5.85;;
34876;SDS011;21086;44.780;17.194;2023-05-02T01:24:28;7.57;;;5.65;;
34876;SDS011;21086;44.780;17.194;2023-05-02T01:29:48;6.13;;;5.07;;
34876;SDS011;21086;44.780;17.194;2023-05-02T01:32:16;6.82;;;5.25;;
34876;SDS011;21086;44.780;17.194;2023-05-02T01:34:47;5.60;;;5.03;;
34876;SDS011;21086;44.780;17.194;2023-05-02T01:37:17;5.68;;;4.85;;
34876;SDS011;21086;44.780;17.194;2023-05-02T01:39:45;5.18;;;4.68;;
34876;SDS011;21086;44.780;17.194;2023-05-02T01:42:13;5.05;;;4.55;;
34876;SDS011;21086;44.780;17.194;2023-05-02T01:44:42;5.45;;;4.95;;
34876;SDS011;21086;44.780;17.194;2023-05-02T01:47:10;5.22;;;4.72;;
34876;SDS011;21086;44.780;17.194;2023-05-02T01:49:38;5.40;;;4.80;;
34876;SDS011;21086;44.780;17.194;2023-05-02T01:52:08;9.45;;;5.07;;
34876;SDS011;21086;44.780;17.194;2023-05-02T01:54:37;5.55;;;5.05;;
34876;SDS011;21086;44.780;17.194;2023-05-02T01:57:07;6.30;;;5.38;;
34876;SDS011;21086;44.780;17.194;2023-05-02T01:59:36;5.40;;;4.90;;
34876;SDS011;21086;44.780;17.194;2023-05-02T02:02:07;7.90;;;4.82;;
34876;SDS011;21086;44.780;17.194;2023-05-02T02:04:36;5.43;;;4.75;;
34876;SDS011;21086;44.780;17.194;2023-05-02T02:07:06;5.85;;;4.63;;
34876;SDS011;21086;44.780;17.194;2023-05-02T02:09:36;4.85;;;4.35;;
34876;SDS011;21086;44.780;17.194;2023-05-02T02:14:58;7.10;;;4.53;;
34876;SDS011;21086;44.780;17.194;2023-05-02T02:17:48;5.57;;;4.70;;
34876;SDS011;21086;44.780;17.194;2023-05-02T02:20:18;5.43;;;4.47;;
34876;SDS011;21086;44.780;17.194;2023-05-02T02:22:47;5.10;;;4.60;;
34876;SDS011;21086;44.780;17.194;2023-05-02T02:25:15;5.60;;;4.70;;
34876;SDS011;21086;44.780;17.194;2023-05-02T02:27:43;5.25;;;4.75;;
34876;SDS011;21086;44.780;17.194;2023-05-02T02:30:10;6.15;;;4.80;;
34876;SDS011;21086;44.780;17.194;2023-05-02T02:32:37;5.15;;;4.65;;
34876;SDS011;21086;44.780;17.194;2023-05-02T02:35:04;5.20;;;4.70;;
34876;SDS011;21086;44.780;17.194;2023-05-02T02:37:34;6.75;;;4.93;;
34876;SDS011;21086;44.780;17.194;2023-05-02T02:45:56;5.75;;;4.88;;
34876;SDS011;21086;44.780;17.194;2023-05-02T02:48:38;5.45;;;4.95;;
34876;SDS011;21086;44.780;17.194;2023-05-02T02:51:27;6.07;;;5.20;;
34876;SDS011;21086;44.780;17.194;2023-05-02T02:54:21;5.50;;;5.00;;
34876;SDS011;21086;44.780;17.194;2023-05-02T02:57:14;8.50;;;4.97;;
34876;SDS011;21086;44.780;17.194;2023-05-02T02:59:50;5.82;;;4.80;;
34876;SDS011;21086;44.780;17.194;2023-05-02T03:02:31;10.43;;;6.47;;
34876;SDS011;21086;44.780;17.194;2023-05-02T03:04:59;6.50;;;5.38;;
34876;SDS011;21086;44.780;17.194;2023-05-02T03:07:27;5.50;;;5.00;;
34876;SDS011;21086;44.780;17.194;2023-05-02T03:09:54;7.40;;;4.70;;
34876;SDS011;21086;44.780;17.194;2023-05-02T03:12:22;5.90;;;4.82;;
34876;SDS011;21086;44.780;17.194;2023-05-02T03:14:49;5.72;;;4.97;;
34876;SDS011;21086;44.780;17.194;2023-05-02T03:17:16;6.65;;;4.65;;
34876;SDS011;21086;44.780;17.194;2023-05-02T03:19:43;6.95;;;5.03;;
34876;SDS011;21086;44.780;17.194;2023-05-02T03:22:10;6.93;;;5.07;;
34876;SDS011;21086;44.780;17.194;2023-05-02T03:24:37;5.07;;;4.57;;
34876;SDS011;21086;44.780;17.194;2023-05-02T03:27:03;4.75;;;4.35;;
34876;SDS011;21086;44.780;17.194;2023-05-02T03:29:30;5.60;;;5.07;;
34876;SDS011;21086;44.780;17.194;2023-05-02T03:31:57;6.78;;;4.97;;
34876;SDS011;21086;44.780;17.194;2023-05-02T03:34:24;5.10;;;4.70;;
34876;SDS011;21086;44.780;17.194;2023-05-02T03:36:52;5.57;;;5.07;;
34876;SDS011;21086;44.780;17.194;2023-05-02T03:39:19;5.72;;;5.13;;
34876;SDS011;21086;44.780;17.194;2023-05-02T03:41:46;6.45;;;5.07;;
34876;SDS011;21086;44.780;17.194;2023-05-02T03:44:13;5.47;;;4.97;;
34876;SDS011;21086;44.780;17.194;2023-05-02T03:46:40;6.03;;;5.43;;
34876;SDS011;21086;44.780;17.194;2023-05-02T03:49:07;6.13;;;5.53;;
34876;SDS011;21086;44.780;17.194;2023-05-02T03:51:34;5.50;;;5.00;;
34876;SDS011;21086;44.780;17.194;2023-05-02T03:54:01;5.35;;;4.85;;
34876;SDS011;21086;44.780;17.194;2023-05-02T03:56:29;7.10;;;4.88;;
34876;SDS011;21086;44.780;17.194;2023-05-02T03:58:56;5.47;;;4.97;;
34876;SDS011;21086;44.780;17.194;2023-05-02T04:01:23;5.20;;;4.70;;
34876;SDS011;21086;44.780;17.194;2023-05-02T04:03:50;5.68;;;4.97;;
34876;SDS011;21086;44.780;17.194;2023-05-02T04:06:18;5.80;;;5.22;;
34876;SDS011;21086;44.780;17.194;2023-05-02T04:08:45;8.00;;;4.97;;
34876;SDS011;21086;44.780;17.194;2023-05-02T04:11:12;5.70;;;5.20;;
34876;SDS011;21086;44.780;17.194;2023-05-02T04:13:39;4.90;;;4.50;;
34876;SDS011;21086;44.780;17.194;2023-05-02T04:16:06;5.70;;;4.80;;
34876;SDS011;21086;44.780;17.194;2023-05-02T04:18:34;6.18;;;5.28;;
34876;SDS011;21086;44.780;17.194;2023-05-02T04:21:01;5.40;;;4.88;;
34876;SDS011;21086;44.780;17.194;2023-05-02T04:23:28;5.40;;;4.90;;
34876;SDS011;21086;44.780;17.194;2023-05-02T04:25:55;5.38;;;4.88;;
34876;SDS011;21086;44.780;17.194;2023-05-02T04:28:22;6.13;;;4.80;;
34876;SDS011;21086;44.780;17.194;2023-05-02T04:30:49;5.70;;;5.07;;
34876;SDS011;21086;44.780;17.194;2023-05-02T04:33:17;5.43;;;4.32;;
34876;SDS011;21086;44.780;17.194;2023-05-02T04:35:44;5.20;;;4.28;;
34876;SDS011;21086;44.780;17.194;2023-05-02T04:38:13;10.10;;;8.02;;
34876;SDS011;21086;44.780;17.194;2023-05-02T04:40:40;4.10;;;3.70;;
34876;SDS011;21086;44.780;17.194;2023-05-02T04:43:08;5.05;;;4.13;;
34876;SDS011;21086;44.780;17.194;2023-05-02T04:45:35;6.15;;;4.82;;
34876;SDS011;21086;44.780;17.194;2023-05-02T04:48:02;4.18;;;3.78;;
34876;SDS011;21086;44.780;17.194;2023-05-02T04:50:30;4.72;;;3.70;;
34876;SDS011;21086;44.780;17.194;2023-05-02T04:52:58;4.47;;;4.03;;
34876;SDS011;21086;44.780;17.194;2023-05-02T04:55:25;5.97;;;4.55;;
34876;SDS011;21086;44.780;17.194;2023-05-02T04:57:52;4.57;;;4.18;;
34876;SDS011;21086;44.780;17.194;2023-05-02T05:00:19;3.97;;;3.58;;
34876;SDS011;21086;44.780;17.194;2023-05-02T05:02:47;5.68;;;3.88;;
34876;SDS011;21086;44.780;17.194;2023-05-02T05:05:14;6.70;;;3.92;;
34876;SDS011;21086;44.780;17.194;2023-05-02T05:07:41;5.90;;;4.38;;
34876;SDS011;21086;44.780;17.194;2023-05-02T05:10:09;6.45;;;4.50;;
34876;SDS011;21086;44.780;17.194;2023-05-02T05:12:36;4.38;;;3.92;;
34876;SDS011;21086;44.780;17.194;2023-05-02T05:15:04;5.25;;;4.57;;
34876;SDS011;21086;44.780;17.194;2023-05-02T05:17:32;5.57;;;5.07;;
34876;SDS011;21086;44.780;17.194;2023-05-02T05:19:59;4.60;;;4.07;;
34876;SDS011;21086;44.780;17.194;2023-05-02T05:22:27;5.18;;;4.68;;
34876;SDS011;21086;44.780;17.194;2023-05-02T05:24:54;4.78;;;4.28;;
34876;SDS011;21086;44.780;17.194;2023-05-02T05:27:21;5.30;;;4.80;;
34876;SDS011;21086;44.780;17.194;2023-05-02T05:29:48;5.20;;;4.10;;
34876;SDS011;21086;44.780;17.194;2023-05-02T05:32:16;5.93;;;5.15;;
34876;SDS011;21086;44.780;17.194;2023-05-02T05:34:43;5.30;;;4.32;;
34876;SDS011;21086;44.780;17.194;2023-05-02T05:37:10;5.40;;;4.82;;
34876;SDS011;21086;44.780;17.194;2023-05-02T05:39:37;5.95;;;4.30;;
34876;SDS011;21086;44.780;17.194;2023-05-02T05:42:04;5.28;;;4.32;;
34876;SDS011;21086;44.780;17.194;2023-05-02T05:44:31;5.00;;;4.50;;
34876;SDS011;21086;44.780;17.194;2023-05-02T05:46:59;5.22;;;4.60;;
34876;SDS011;21086;44.780;17.194;2023-05-02T05:49:26;5.28;;;4.53;;
34876;SDS011;21086;44.780;17.194;2023-05-02T05:51:53;4.55;;;4.15;;
34876;SDS011;21086;44.780;17.194;2023-05-02T05:54:20;5.03;;;4.63;;
34876;SDS011;21086;44.780;17.194;2023-05-02T05:56:48;9.82;;;4.55;;
34876;SDS011;21086;44.780;17.194;2023-05-02T05:59:15;8.10;;;4.50;;
34876;SDS011;21086;44.780;17.194;2023-05-02T06:01:42;4.90;;;4.40;;
34876;SDS011;21086;44.780;17.194;2023-05-02T06:04:09;5.05;;;4.50;;
34876;SDS011;21086;44.780;17.194;2023-05-02T06:06:36;5.45;;;4.95;;
34876;SDS011;21086;44.780;17.194;2023-05-02T06:09:04;5.75;;;5.15;;
34876;SDS011;21086;44.780;17.194;2023-05-02T06:11:31;6.68;;;6.00;;
34876;SDS011;21086;44.780;17.194;2023-05-02T06:13:58;6.38;;;5.78;;
34876;SDS011;21086;44.780;17.194;2023-05-02T06:16:25;11.73;;;6.28;;
34876;SDS011;21086;44.780;17.194;2023-05-02T06:18:52;6.38;;;5.72;;
34876;SDS011;21086;44.780;17.194;2023-05-02T06:21:19;6.78;;;5.93;;
34876;SDS011;21086;44.780;17.194;2023-05-02T06:23:47;7.72;;;5.22;;
34876;SDS011;21086;44.780;17.194;2023-05-02T06:26:14;6.22;;;5.63;;
34876;SDS011;21086;44.780;17.194;2023-05-02T06:28:41;6.60;;;5.28;;
34876;SDS011;21086;44.780;17.194;2023-05-02T06:31:08;7.10;;;5.80;;
34876;SDS011;21086;44.780;17.194;2023-05-02T06:33:36;9.02;;;5.40;;
34876;SDS011;21086;44.780;17.194;2023-05-02T06:36:03;5.60;;;5.10;;
34876;SDS011;21086;44.780;17.194;2023-05-02T06:38:29;6.70;;;4.95;;
34876;SDS011;21086;44.780;17.194;2023-05-02T06:40:57;6.13;;;5.07;;
34876;SDS011;21086;44.780;17.194;2023-05-02T06:43:24;6.22;;;4.95;;
34876;SDS011;21086;44.780;17.194;2023-05-02T06:45:51;5.82;;;5.22;;
34876;SDS011;21086;44.780;17.194;2023-05-02T06:48:19;9.93;;;5.80;;
34876;SDS011;21086;44.780;17.194;2023-05-02T06:50:47;7.05;;;5.45;;
34876;SDS011;21086;44.780;17.194;2023-05-02T06:53:14;5.55;;;4.90;;
34876;SDS011;21086;44.780;17.194;2023-05-02T06:55:42;6.53;;;4.97;;
34876;SDS011;21086;44.780;17.194;2023-05-02T06:58:11;6.10;;;5.45;;
34876;SDS011;21086;44.780;17.194;2023-05-02T07:00:37;6.35;;;5.68;;
34876;SDS011;21086;44.780;17.194;2023-05-02T07:03:04;8.32;;;6.25;;
34876;SDS011;21086;44.780;17.194;2023-05-02T07:05:32;10.77;;;6.15;;
34876;SDS011;21086;44.780;17.194;2023-05-02T07:07:59;9.05;;;6.82;;
34876;SDS011;21086;44.780;17.194;2023-05-02T07:10:26;6.47;;;5.60;;
34876;SDS011;21086;44.780;17.194;2023-05-02T07:12:53;6.40;;;5.80;;
34876;SDS011;21086;44.780;17.194;2023-05-02T07:15:20;6.40;;;5.70;;
34876;SDS011;21086;44.780;17.194;2023-05-02T07:17:47;8.18;;;5.65;;
34876;SDS011;21086;44.780;17.194;2023-05-02T07:20:14;5.80;;;5.10;;
34876;SDS011;21086;44.780;17.194;2023-05-02T07:22:42;6.30;;;4.97;;
34876;SDS011;21086;44.780;17.194;2023-05-02T07:25:09;5.05;;;4.55;;
34876;SDS011;21086;44.780;17.194;2023-05-02T07:27:36;6.50;;;5.53;;
34876;SDS011;21086;44.780;17.194;2023-05-02T07:30:03;7.93;;;6.57;;
34876;SDS011;21086;44.780;17.194;2023-05-02T07:32:31;7.22;;;6.10;;
34876;SDS011;21086;44.780;17.194;2023-05-02T07:34:59;7.20;;;5.85;;
34876;SDS011;21086;44.780;17.194;2023-05-02T07:37:26;16.40;;;8.75;;
34876;SDS011;21086;44.780;17.194;2023-05-02T07:39:59;7.45;;;6.72;;
34876;SDS011;21086;44.780;17.194;2023-05-02T07:42:29;7.10;;;6.40;;
34876;SDS011;21086;44.780;17.194;2023-05-02T07:44:56;7.35;;;6.57;;
34876;SDS011;21086;44.780;17.194;2023-05-02T07:47:24;7.28;;;6.57;;
34876;SDS011;21086;44.780;17.194;2023-05-02T07:49:55;7.22;;;6.53;;
34876;SDS011;21086;44.780;17.194;2023-05-02T07:52:22;7.60;;;6.25;;
34876;SDS011;21086;44.780;17.194;2023-05-02T07:54:49;7.13;;;6.03;;
34876;SDS011;21086;44.780;17.194;2023-05-02T07:57:17;7.05;;;6.43;;
34876;SDS011;21086;44.780;17.194;2023-05-02T07:59:44;8.10;;;7.25;;
34876;SDS011;21086;44.780;17.194;2023-05-02T08:02:11;6.05;;;5.45;;
34876;SDS011;21086;44.780;17.194;2023-05-02T08:04:39;7.95;;;7.15;;
34876;SDS011;21086;44.780;17.194;2023-05-02T08:07:06;6.43;;;5.45;;
34876;SDS011;21086;44.780;17.194;2023-05-02T08:09:33;5.38;;;4.88;;
34876;SDS011;21086;44.780;17.194;2023-05-02T08:12:00;5.07;;;4.57;;
34876;SDS011;21086;44.780;17.194;2023-05-02T08:14:28;5.80;;;5.00;;
34876;SDS011;21086;44.780;17.194;2023-05-02T08:16:55;6.28;;;5.70;;
34876;SDS011;21086;44.780;17.194;2023-05-02T08:19:23;6.30;;;5.72;;
34876;SDS011;21086;44.780;17.194;2023-05-02T08:21:52;6.72;;;6.07;;
34876;SDS011;21086;44.780;17.194;2023-05-02T08:24:19;6.85;;;6.25;;
34876;SDS011;21086;44.780;17.194;2023-05-02T08:26:47;6.47;;;5.90;;
34876;SDS011;21086;44.780;17.194;2023-05-02T08:29:14;6.68;;;6.07;;
34876;SDS011;21086;44.780;17.194;2023-05-02T08:31:42;7.05;;;6.28;;
34876;SDS011;21086;44.780;17.194;2023-05-02T08:34:09;7.57;;;5.95;;
34876;SDS011;21086;44.780;17.194;2023-05-02T08:36:36;6.78;;;6.07;;
34876;SDS011;21086;44.780;17.194;2023-05-02T08:39:03;7.45;;;6.03;;
34876;SDS011;21086;44.780;17.194;2023-05-02T08:41:30;7.10;;;6.43;;
34876;SDS011;21086;44.780;17.194;2023-05-02T08:43:58;6.63;;;5.95;;
34876;SDS011;21086;44.780;17.194;2023-05-02T08:46:25;7.15;;;6.43;;
34876;SDS011;21086;44.780;17.194;2023-05-02T08:48:54;6.15;;;5.53;;
34876;SDS011;21086;44.780;17.194;2023-05-02T08:51:24;7.45;;;4.93;;
34876;SDS011;21086;44.780;17.194;2023-05-02T08:53:54;6.70;;;5.18;;
34876;SDS011;21086;44.780;17.194;2023-05-02T08:56:23;5.90;;;4.60;;
34876;SDS011;21086;44.780;17.194;2023-05-02T08:58:51;5.10;;;4.68;;
34876;SDS011;21086;44.780;17.194;2023-05-02T09:01:19;5.00;;;4.50;;
34876;SDS011;21086;44.780;17.194;2023-05-02T09:03:49;5.50;;;4.88;;
34876;SDS011;21086;44.780;17.194;2023-05-02T09:06:18;5.75;;;5.22;;
34876;SDS011;21086;44.780;17.194;2023-05-02T09:08:47;4.72;;;4.32;;
34876;SDS011;21086;44.780;17.194;2023-05-02T09:11:16;4.97;;;4.47;;
34876;SDS011;21086;44.780;17.194;2023-05-02T09:13:44;6.30;;;5.55;;
34876;SDS011;21086;44.780;17.194;2023-05-02T09:16:16;5.85;;;5.25;;
34876;SDS011;21086;44.780;17.194;2023-05-02T09:18:49;5.45;;;4.95;;
34876;SDS011;21086;44.780;17.194;2023-05-02T09:21:36;5.88;;;5.03;;
34876;SDS011;21086;44.780;17.194;2023-05-02T09:24:18;9.93;;;5.35;;
34876;SDS011;21086;44.780;17.194;2023-05-02T09:26:56;6.03;;;5.40;;
34876;SDS011;21086;44.780;17.194;2023-05-02T09:29:23;6.30;;;5.70;;
34876;SDS011;21086;44.780;17.194;2023-05-02T09:31:51;5.40;;;4.90;;
34876;SDS011;21086;44.780;17.194;2023-05-02T09:34:22;8.00;;;5.97;;
34876;SDS011;21086;44.780;17.194;2023-05-02T09:36:50;7.13;;;5.95;;
34876;SDS011;21086;44.780;17.194;2023-05-02T09:39:28;7.00;;;6.28;;
34876;SDS011;21086;44.780;17.194;2023-05-02T09:41:56;5.90;;;5.40;;
34876;SDS011;21086;44.780;17.194;2023-05-02T09:44:25;5.70;;;5.15;;
34876;SDS011;21086;44.780;17.194;2023-05-02T09:47:01;5.85;;;5.35;;
34876;SDS011;21086;44.780;17.194;2023-05-02T09:49:38;5.15;;;4.65;;
34876;SDS011;21086;44.780;17.194;2023-05-02T09:52:14;6.00;;;5.40;;
34876;SDS011;21086;44.780;17.194;2023-05-02T09:54:42;5.47;;;4.97;;
34876;SDS011;21086;44.780;17.194;2023-05-02T09:57:11;6.30;;;5.70;;
34876;SDS011;21086;44.780;17.194;2023-05-02T09:59:39;6.45;;;4.93;;
34876;SDS011;21086;44.780;17.194;2023-05-02T10:02:08;5.82;;;4.65;;
34876;SDS011;21086;44.780;17.194;2023-05-02T10:04:37;6.88;;;6.20;;
34876;SDS011;21086;44.780;17.194;2023-05-02T10:07:07;6.88;;;6.00;;
34876;SDS011;21086;44.780;17.194;2023-05-02T10:09:36;7.00;;;6.40;;
34876;SDS011;21086;44.780;17.194;2023-05-02T10:12:09;6.40;;;5.57;;
34876;SDS011;21086;44.780;17.194;2023-05-02T10:14:42;6.60;;;6.00;;
34876;SDS011;21086;44.780;17.194;2023-05-02T10:17:15;6.45;;;5.65;;
34876;SDS011;21086;44.780;17.194;2023-05-02T10:19:56;7.00;;;6.35;;
34876;SDS011;21086;44.780;17.194;2023-05-02T10:22:26;5.70;;;5.20;;
34876;SDS011;21086;44.780;17.194;2023-05-02T10:24:54;7.43;;;6.72;;
34876;SDS011;21086;44.780;17.194;2023-05-02T10:27:25;7.70;;;6.90;;
34876;SDS011;21086;44.780;17.194;2023-05-02T10:29:52;8.57;;;7.78;;
34876;SDS011;21086;44.780;17.194;2023-05-02T10:32:20;8.80;;;6.97;;
34876;SDS011;21086;44.780;17.194;2023-05-02T10:34:48;7.40;;;6.70;;
34876;SDS011;21086;44.780;17.194;2023-05-02T10:37:17;7.03;;;6.32;;
34876;SDS011;21086;44.780;17.194;2023-05-02T10:39:45;5.70;;;5.20;;
34876;SDS011;21086;44.780;17.194;2023-05-02T10:42:12;9.15;;;8.25;;
34876;SDS011;21086;44.780;17.194;2023-05-02T10:44:40;7.22;;;6.63;;
34876;SDS011;21086;44.780;17.194;2023-05-02T10:49:54;7.07;;;5.38;;
34876;SDS011;21086;44.780;17.194;2023-05-02T10:52:27;9.40;;;5.82;;
34876;SDS011;21086;44.780;17.194;2023-05-02T10:55:14;6.32;;;5.82;;
34876;SDS011;21086;44.780;17.194;2023-05-02T11:00:32;5.75;;;5.25;;
34876;SDS011;21086;44.780;17.194;2023-05-02T11:03:00;5.32;;;4.70;;
34876;SDS011;21086;44.780;17.194;2023-05-02T11:05:28;6.07;;;5.47;;
34876;SDS011;21086;44.780;17.194;2023-05-02T11:10:42;4.82;;;4.43;;
34876;SDS011;21086;44.780;17.194;2023-05-02T11:13:11;5.45;;;4.82;;
34876;SDS011;21086;44.780;17.194;2023-05-02T11:18:05;5.75;;;5.18;;
34876;SDS011;21086;44.780;17.194;2023-05-02T11:20:34;8.55;;;5.07;;
34876;SDS011;21086;44.780;17.194;2023-05-02T11:23:22;5.45;;;4.95;;
34876;SDS011;21086;44.780;17.194;2023-05-02T11:25:53;5.63;;;5.13;;
34876;SDS011;21086;44.780;17.194;2023-05-02T11:31:08;5.88;;;5.38;;
34876;SDS011;21086;44.780;17.194;2023-05-02T11:33:58;5.30;;;4.80;;
34876;SDS011;21086;44.780;17.194;2023-05-02T11:36:29;5.68;;;5.07;;
34876;SDS011;21086;44.780;17.194;2023-05-02T11:38:59;6.80;;;5.50;;
34876;SDS011;21086;44.780;17.194;2023-05-02T11:41:40;6.82;;;5.63;;
34876;SDS011;21086;44.780;17.194;2023-05-02T11:44:12;6.28;;;5.68;;
34876;SDS011;21086;44.780;17.194;2023-05-02T11:46:39;6.55;;;5.88;;
34876;SDS011;21086;44.780;17.194;2023-05-02T11:49:07;6.90;;;6.20;;
34876;SDS011;21086;44.780;17.194;2023-05-02T11:51:36;6.43;;;5.80;;
34876;SDS011;21086;44.780;17.194;2023-05-02T11:54:03;8.63;;;7.68;;
34876;SDS011;21086;44.780;17.194;2023-05-02T11:56:32;8.32;;;7.05;;
34876;SDS011;21086;44.780;17.194;2023-05-02T11:59:00;8.07;;;7.13;;
34876;SDS011;21086;44.780;17.194;2023-05-02T12:01:28;9.10;;;7.38;;
34876;SDS011;21086;44.780;17.194;2023-05-02T12:04:03;9.13;;;8.23;;
34876;SDS011;21086;44.780;17.194;2023-05-02T12:06:32;8.93;;;8.02;;
34876;SDS011;21086;44.780;17.194;2023-05-02T12:09:12;10.38;;;8.05;;
34876;SDS011;21086;44.780;17.194;2023-05-02T12:11:41;7.72;;;6.93;;
34876;SDS011;21086;44.780;17.194;2023-05-02T12:14:09;8.65;;;6.47;;
34876;SDS011;21086;44.780;17.194;2023-05-02T12:16:36;7.07;;;5.32;;
34876;SDS011;21086;44.780;17.194;2023-05-02T12:19:04;5.30;;;4.47;;
34876;SDS011;21086;44.780;17.194;2023-05-02T12:21:31;5.85;;;4.30;;
34876;SDS011;21086;44.780;17.194;2023-05-02T12:23:59;4.10;;;3.70;;
34876;SDS011;21086;44.780;17.194;2023-05-02T12:26:27;5.55;;;4.97;;
34876;SDS011;21086;44.780;17.194;2023-05-02T12:28:56;8.25;;;5.45;;
34876;SDS011;21086;44.780;17.194;2023-05-02T12:31:28;4.47;;;4.07;;
34876;SDS011;21086;44.780;17.194;2023-05-02T12:33:56;4.47;;;4.05;;
34876;SDS011;21086;44.780;17.194;2023-05-02T12:36:26;4.40;;;3.53;;
34876;SDS011;21086;44.780;17.194;2023-05-02T12:38:59;4.53;;;3.90;;
34876;SDS011;21086;44.780;17.194;2023-05-02T12:41:31;5.95;;;5.32;;
34876;SDS011;21086;44.780;17.194;2023-05-02T12:44:00;6.22;;;5.63;;
34876;SDS011;21086;44.780;17.194;2023-05-02T12:46:27;4.32;;;3.92;;
34876;SDS011;21086;44.780;17.194;2023-05-02T12:49:05;4.03;;;3.60;;
34876;SDS011;21086;44.780;17.194;2023-05-02T12:51:35;6.15;;;5.07;;
34876;SDS011;21086;44.780;17.194;2023-05-02T12:54:02;6.82;;;5.13;;
34876;SDS011;21086;44.780;17.194;2023-05-02T12:56:37;6.68;;;5.65;;
34876;SDS011;21086;44.780;17.194;2023-05-02T12:59:05;6.78;;;5.30;;
34876;SDS011;21086;44.780;17.194;2023-05-02T13:01:33;9.27;;;7.72;;
34876;SDS011;21086;44.780;17.194;2023-05-02T13:04:01;7.88;;;7.07;;
34876;SDS011;21086;44.780;17.194;2023-05-02T13:06:28;7.28;;;6.50;;
34876;SDS011;21086;44.780;17.194;2023-05-02T13:08:55;7.72;;;7.03;;
34876;SDS011;21086;44.780;17.194;2023-05-02T13:11:22;7.03;;;6.32;;
34876;SDS011;21086;44.780;17.194;2023-05-02T13:13:49;9.15;;;7.45;;
34876;SDS011;21086;44.780;17.194;2023-05-02T13:16:16;8.15;;;7.35;;
34876;SDS011;21086;44.780;17.194;2023-05-02T13:18:44;10.10;;;9.05;;
34876;SDS011;21086;44.780;17.194;2023-05-02T13:21:13;10.02;;;8.98;;
34876;SDS011;21086;44.780;17.194;2023-05-02T13:23:41;8.77;;;7.88;;
34876;SDS011;21086;44.780;17.194;2023-05-02T13:26:09;10.27;;;8.52;;
34876;SDS011;21086;44.780;17.194;2023-05-02T13:28:37;10.20;;;7.28;;
34876;SDS011;21086;44.780;17.194;2023-05-02T13:31:04;11.10;;;8.82;;
34876;SDS011;21086;44.780;17.194;2023-05-02T13:33:31;11.25;;;9.52;;
34876;SDS011;21086;44.780;17.194;2023-05-02T13:35:58;8.77;;;7.47;;
34876;SDS011;21086;44.780;17.194;2023-05-02T13:38:25;8.35;;;6.80;;
34876;SDS011;21086;44.780;17.194;2023-05-02T13:40:52;8.68;;;6.60;;
34876;SDS011;21086;44.780;17.194;2023-05-02T13:43:19;8.32;;;7.03;;
34876;SDS011;21086;44.780;17.194;2023-05-02T13:45:46;7.68;;;6.88;;
34876;SDS011;21086;44.780;17.194;2023-05-02T13:48:14;10.35;;;8.40;;
34876;SDS011;21086;44.780;17.194;2023-05-02T13:50:41;10.43;;;8.50;;
34876;SDS011;21086;44.780;17.194;2023-05-02T13:53:08;8.65;;;7.55;;
34876;SDS011;21086;44.780;17.194;2023-05-02T13:55:36;11.88;;;8.82;;
34876;SDS011;21086;44.780;17.194;2023-05-02T13:58:03;9.13;;;7.43;;
34876;SDS011;21086;44.780;17.194;2023-05-02T14:00:31;9.13;;;7.85;;
34876;SDS011;21086;44.780;17.194;2023-05-02T14:02:58;7.75;;;7.05;;
34876;SDS011;21086;44.780;17.194;2023-05-02T14:05:25;7.28;;;6.50;;
34876;SDS011;21086;44.780;17.194;2023-05-02T14:07:52;7.80;;;7.10;;
34876;SDS011;21086;44.780;17.194;2023-05-02T14:10:18;7.57;;;6.78;;
34876;SDS011;21086;44.780;17.194;2023-05-02T14:12:45;7.60;;;6.70;;
34876;SDS011;21086;44.780;17.194;2023-05-02T14:15:13;7.28;;;6.55;;
34876;SDS011;21086;44.780;17.194;2023-05-02T14:17:41;9.65;;;7.05;;
34876;SDS011;21086;44.780;17.194;2023-05-02T14:20:08;6.75;;;6.15;;
34876;SDS011;21086;44.780;17.194;2023-05-02T14:22:36;6.82;;;6.13;;
34876;SDS011;21086;44.780;17.194;2023-05-02T14:25:03;9.40;;;6.30;;
34876;SDS011;21086;44.780;17.194;2023-05-02T14:27:31;6.55;;;5.80;;
34876;SDS011;21086;44.780;17.194;2023-05-02T14:29:58;11.25;;;6.68;;
34876;SDS011;21086;44.780;17.194;2023-05-02T14:32:25;7.65;;;6.50;;
34876;SDS011;21086;44.780;17.194;2023-05-02T14:34:53;8.60;;;5.93;;
34876;SDS011;21086;44.780;17.194;2023-05-02T14:37:20;11.70;;;7.90;;
34876;SDS011;21086;44.780;17.194;2023-05-02T14:39:46;8.90;;;8.00;;
34876;SDS011;21086;44.780;17.194;2023-05-02T14:42:21;11.93;;;10.35;;
34876;SDS011;21086;44.780;17.194;2023-05-02T14:44:48;13.75;;;11.13;;
34876;SDS011;21086;44.780;17.194;2023-05-02T14:47:15;16.00;;;12.23;;
34876;SDS011;21086;44.780;17.194;2023-05-02T14:49:43;18.30;;;13.80;;
34876;SDS011;21086;44.780;17.194;2023-05-02T14:52:10;14.95;;;11.25;;
34876;SDS011;21086;44.780;17.194;2023-05-02T14:54:37;12.45;;;11.15;;
34876;SDS011;21086;44.780;17.194;2023-05-02T14:57:04;12.77;;;11.40;;
34876;SDS011;21086;44.780;17.194;2023-05-02T14:59:33;17.80;;;13.20;;
34876;SDS011;21086;44.780;17.194;2023-05-02T15:02:01;13.55;;;11.20;;
34876;SDS011;21086;44.780;17.194;2023-05-02T15:04:29;9.10;;;7.90;;
34876;SDS011;21086;44.780;17.194;2023-05-02T15:06:56;12.95;;;8.63;;
34876;SDS011;21086;44.780;17.194;2023-05-02T15:09:25;13.32;;;12.02;;
34876;SDS011;21086;44.780;17.194;2023-05-02T15:11:52;14.23;;;12.73;;
34876;SDS011;21086;44.780;17.194;2023-05-02T15:14:19;11.30;;;10.15;;
34876;SDS011;21086;44.780;17.194;2023-05-02T15:16:46;15.18;;;12.40;;